sensor_id;sensor_type;location;lat;lon;timestamp;pressure;altitude;pressure_sealevel;temperature;humidity
38880;BME280;25887;30.194;-97.880;2022-08-03T00:01:57;98129.03;;;40.56;23.90
38880;BME280;25887;30.194;-97.880;2022-08-03T00:04:23;98121.50;;;40.51;23.77
38880;BME280;25887;30.194;-97.880;2022-08-03T00:06:49;98117.75;;;40.46;24.02
38880;BME280;25887;30.194;-97.880;2022-08-03T00:12:05;98122.22;;;40.38;23.96
38880;BME280;25887;30.194;-97.880;2022-08-03T00:14:31;98113.09;;;40.33;24.01
38880;BME280;25887;30.194;-97.880;2022-08-03T00:16:56;98115.31;;;40.29;24.02
38880;BME280;25887;30.194;-97.880;2022-08-03T00:19:22;98114.69;;;40.27;24.01
38880;BME280;25887;30.194;-97.880;2022-08-03T00:21:57;98115.25;;;40.23;23.98
38880;BME280;25887;30.194;-97.880;2022-08-03T00:24:23;98113.19;;;40.18;24.05
38880;BME280;25887;30.194;-97.880;2022-08-03T00:29:38;98122.44;;;40.09;24.17
38880;BME280;25887;30.194;-97.880;2022-08-03T00:32:04;98121.13;;;40.05;24.38
38880;BME280;25887;30.194;-97.880;2022-08-03T00:34:29;98119.84;;;40.01;24.23
38880;BME280;25887;30.194;-97.880;2022-08-03T00:36:56;98126.63;;;39.97;24.39
38880;BME280;25887;30.194;-97.880;2022-08-03T00:39:21;98126.34;;;39.92;24.55
38880;BME280;25887;30.194;-97.880;2022-08-03T00:41:47;98122.41;;;39.88;24.42
38880;BME280;25887;30.194;-97.880;2022-08-03T00:44:13;98115.72;;;39.83;24.41
38880;BME280;25887;30.194;-97.880;2022-08-03T00:46:38;98120.88;;;39.78;24.58
38880;BME280;25887;30.194;-97.880;2022-08-03T00:49:04;98126.63;;;39.75;24.48
38880;BME280;25887;30.194;-97.880;2022-08-03T00:51:30;98122.66;;;39.71;24.88
38880;BME280;25887;30.194;-97.880;2022-08-03T00:53:56;98126.75;;;39.67;24.46
38880;BME280;25887;30.194;-97.880;2022-08-03T00:56:21;98121.13;;;39.62;24.65
38880;BME280;25887;30.194;-97.880;2022-08-03T00:58:47;98130.75;;;39.56;24.42
38880;BME280;25887;30.194;-97.880;2022-08-03T01:01:14;98124.28;;;39.51;24.61
38880;BME280;25887;30.194;-97.880;2022-08-03T01:03:41;98126.72;;;39.46;24.81
38880;BME280;25887;30.194;-97.880;2022-08-03T01:06:11;98128.09;;;39.42;24.50
38880;BME280;25887;30.194;-97.880;2022-08-03T01:08:45;98133.69;;;39.40;24.63
38880;BME280;25887;30.194;-97.880;2022-08-03T01:11:23;98127.81;;;39.37;24.93
38880;BME280;25887;30.194;-97.880;2022-08-03T01:28:13;98131.31;;;39.01;25.48
38880;BME280;25887;30.194;-97.880;2022-08-03T01:30:17;98122.69;;;38.91;25.73
38880;BME280;25887;30.194;-97.880;2022-08-03T01:38:48;98129.97;;;38.67;26.70
38880;BME280;25887;30.194;-97.880;2022-08-03T01:41:07;98134.59;;;38.59;26.87
38880;BME280;25887;30.194;-97.880;2022-08-03T01:43:35;98143.41;;;38.53;27.05
38880;BME280;25887;30.194;-97.880;2022-08-03T01:46:02;98145.81;;;38.47;27.11
38880;BME280;25887;30.194;-97.880;2022-08-03T01:48:38;98147.53;;;38.40;27.41
38880;BME280;25887;30.194;-97.880;2022-08-03T01:51:05;98144.09;;;38.32;27.36
38880;BME280;25887;30.194;-97.880;2022-08-03T01:53:33;98144.19;;;38.24;28.06
38880;BME280;25887;30.194;-97.880;2022-08-03T01:56:01;98151.25;;;38.16;28.22
38880;BME280;25887;30.194;-97.880;2022-08-03T01:58:28;98159.38;;;38.08;28.59
38880;BME280;25887;30.194;-97.880;2022-08-03T02:00:54;98160.72;;;38.04;27.85
38880;BME280;25887;30.194;-97.880;2022-08-03T02:03:25;98164.81;;;38.00;28.27
38880;BME280;25887;30.194;-97.880;2022-08-03T02:05:51;98162.84;;;37.94;28.71
38880;BME280;25887;30.194;-97.880;2022-08-03T02:08:28;98167.25;;;37.87;28.41
38880;BME280;25887;30.194;-97.880;2022-08-03T02:10:56;98176.38;;;37.78;28.54
38880;BME280;25887;30.194;-97.880;2022-08-03T02:13:23;98170.19;;;37.69;29.37
38880;BME280;25887;30.194;-97.880;2022-08-03T02:15:49;98170.06;;;37.62;29.36
38880;BME280;25887;30.194;-97.880;2022-08-03T02:18:17;98168.72;;;37.58;29.21
38880;BME280;25887;30.194;-97.880;2022-08-03T02:20:43;98171.31;;;37.52;29.45
38880;BME280;25887;30.194;-97.880;2022-08-03T02:23:08;98181.88;;;37.45;29.37
38880;BME280;25887;30.194;-97.880;2022-08-03T02:25:37;98188.94;;;37.38;29.59
38880;BME280;25887;30.194;-97.880;2022-08-03T02:28:09;98198.66;;;37.31;29.44
38880;BME280;25887;30.194;-97.880;2022-08-03T02:30:36;98203.03;;;37.24;29.62
38880;BME280;25887;30.194;-97.880;2022-08-03T02:33:03;98221.66;;;37.17;30.23
38880;BME280;25887;30.194;-97.880;2022-08-03T02:35:30;98221.03;;;37.07;30.42
38880;BME280;25887;30.194;-97.880;2022-08-03T02:37:59;98230.94;;;36.98;30.83
38880;BME280;25887;30.194;-97.880;2022-08-03T02:40:26;98225.59;;;36.90;30.95
38880;BME280;25887;30.194;-97.880;2022-08-03T02:42:53;98228.41;;;36.80;31.23
38880;BME280;25887;30.194;-97.880;2022-08-03T02:45:21;98234.47;;;36.74;30.87
38880;BME280;25887;30.194;-97.880;2022-08-03T02:47:48;98241.50;;;36.67;31.59
38880;BME280;25887;30.194;-97.880;2022-08-03T02:50:16;98255.53;;;36.61;31.84
38880;BME280;25887;30.194;-97.880;2022-08-03T02:52:43;98252.03;;;36.52;31.88
38880;BME280;25887;30.194;-97.880;2022-08-03T02:58:13;98258.69;;;36.32;32.63
38880;BME280;25887;30.194;-97.880;2022-08-03T03:00:42;98270.38;;;36.23;32.81
38880;BME280;25887;30.194;-97.880;2022-08-03T03:03:08;98270.38;;;36.15;32.70
38880;BME280;25887;30.194;-97.880;2022-08-03T03:05:35;98265.66;;;36.09;33.00
38880;BME280;25887;30.194;-97.880;2022-08-03T03:08:02;98270.00;;;36.02;32.74
38880;BME280;25887;30.194;-97.880;2022-08-03T03:10:28;98283.03;;;35.96;33.31
38880;BME280;25887;30.194;-97.880;2022-08-03T03:12:55;98281.00;;;35.90;33.29
38880;BME280;25887;30.194;-97.880;2022-08-03T03:15:22;98295.66;;;35.86;33.08
38880;BME280;25887;30.194;-97.880;2022-08-03T03:17:48;98291.66;;;35.82;33.26
38880;BME280;25887;30.194;-97.880;2022-08-03T03:20:15;98292.28;;;35.76;33.13
38880;BME280;25887;30.194;-97.880;2022-08-03T03:28:48;98313.94;;;35.57;33.56
38880;BME280;25887;30.194;-97.880;2022-08-03T03:31:14;98312.91;;;35.50;34.38
38880;BME280;25887;30.194;-97.880;2022-08-03T03:33:39;98322.56;;;35.42;34.36
38880;BME280;25887;30.194;-97.880;2022-08-03T03:36:05;98326.81;;;35.35;34.74
38880;BME280;25887;30.194;-97.880;2022-08-03T03:38:31;98334.78;;;35.27;35.15
38880;BME280;25887;30.194;-97.880;2022-08-03T03:40:58;98337.25;;;35.21;35.09
38880;BME280;25887;30.194;-97.880;2022-08-03T03:43:24;98327.34;;;35.13;35.55
38880;BME280;25887;30.194;-97.880;2022-08-03T03:45:50;98339.81;;;35.04;36.06
38880;BME280;25887;30.194;-97.880;2022-08-03T03:48:17;98345.09;;;34.96;36.33
38880;BME280;25887;30.194;-97.880;2022-08-03T03:50:43;98347.50;;;34.89;35.88
38880;BME280;25887;30.194;-97.880;2022-08-03T03:53:09;98347.28;;;34.83;36.39
38880;BME280;25887;30.194;-97.880;2022-08-03T03:55:36;98350.38;;;34.78;36.20
38880;BME280;25887;30.194;-97.880;2022-08-03T03:58:02;98347.66;;;34.70;36.71
38880;BME280;25887;30.194;-97.880;2022-08-03T04:00:28;98344.78;;;34.63;36.83
38880;BME280;25887;30.194;-97.880;2022-08-03T04:02:54;98348.34;;;34.54;37.35
38880;BME280;25887;30.194;-97.880;2022-08-03T04:05:20;98346.44;;;34.47;37.49
38880;BME280;25887;30.194;-97.880;2022-08-03T04:08:08;98342.97;;;34.36;37.63
38880;BME280;25887;30.194;-97.880;2022-08-03T04:11:13;98344.72;;;34.28;37.27
38880;BME280;25887;30.194;-97.880;2022-08-03T04:16:47;98349.41;;;34.16;37.82
38880;BME280;25887;30.194;-97.880;2022-08-03T04:19:25;98344.72;;;34.10;37.73
38880;BME280;25887;30.194;-97.880;2022-08-03T04:21:53;98345.28;;;34.04;37.68
38880;BME280;25887;30.194;-97.880;2022-08-03T04:24:20;98350.06;;;34.00;37.64
38880;BME280;25887;30.194;-97.880;2022-08-03T04:26:46;98340.88;;;33.95;37.49
38880;BME280;25887;30.194;-97.880;2022-08-03T04:29:13;98345.78;;;33.90;37.59
38880;BME280;25887;30.194;-97.880;2022-08-03T04:31:40;98342.69;;;33.85;38.10
38880;BME280;25887;30.194;-97.880;2022-08-03T04:34:06;98338.94;;;33.77;37.59
38880;BME280;25887;30.194;-97.880;2022-08-03T04:36:32;98338.41;;;33.74;37.53
38880;BME280;25887;30.194;-97.880;2022-08-03T04:41:27;98341.94;;;33.65;37.97
38880;BME280;25887;30.194;-97.880;2022-08-03T04:43:54;98337.03;;;33.60;37.56
38880;BME280;25887;30.194;-97.880;2022-08-03T04:46:21;98343.50;;;33.58;37.80
38880;BME280;25887;30.194;-97.880;2022-08-03T04:48:48;98339.59;;;33.52;37.74
38880;BME280;25887;30.194;-97.880;2022-08-03T04:51:14;98342.56;;;33.49;38.28
38880;BME280;25887;30.194;-97.880;2022-08-03T04:53:41;98342.16;;;33.44;37.96
38880;BME280;25887;30.194;-97.880;2022-08-03T04:56:07;98347.78;;;33.41;37.84
38880;BME280;25887;30.194;-97.880;2022-08-03T04:58:33;98349.00;;;33.37;38.11
38880;BME280;25887;30.194;-97.880;2022-08-03T05:00:59;98350.16;;;33.34;38.21
38880;BME280;25887;30.194;-97.880;2022-08-03T05:03:25;98346.81;;;33.32;38.24
38880;BME280;25887;30.194;-97.880;2022-08-03T05:05:51;98356.03;;;33.28;38.42
38880;BME280;25887;30.194;-97.880;2022-08-03T05:08:17;98355.63;;;33.23;38.88
38880;BME280;25887;30.194;-97.880;2022-08-03T05:10:43;98354.41;;;33.17;38.95
38880;BME280;25887;30.194;-97.880;2022-08-03T05:13:08;98343.34;;;33.12;38.64
38880;BME280;25887;30.194;-97.880;2022-08-03T05:15:52;98335.78;;;33.08;38.54
38880;BME280;25887;30.194;-97.880;2022-08-03T05:18:17;98339.72;;;33.04;38.24
38880;BME280;25887;30.194;-97.880;2022-08-03T05:20:43;98349.66;;;33.02;38.68
38880;BME280;25887;30.194;-97.880;2022-08-03T05:23:09;98361.41;;;32.99;38.54
38880;BME280;25887;30.194;-97.880;2022-08-03T05:25:35;98360.03;;;32.95;38.46
38880;BME280;25887;30.194;-97.880;2022-08-03T05:28:00;98357.66;;;32.92;38.79
38880;BME280;25887;30.194;-97.880;2022-08-03T05:30:26;98356.94;;;32.90;38.42
38880;BME280;25887;30.194;-97.880;2022-08-03T05:32:52;98356.25;;;32.88;38.84
38880;BME280;25887;30.194;-97.880;2022-08-03T05:35:18;98354.72;;;32.85;38.39
38880;BME280;25887;30.194;-97.880;2022-08-03T05:37:43;98354.81;;;32.84;38.87
38880;BME280;25887;30.194;-97.880;2022-08-03T05:40:09;98352.28;;;32.82;38.54
38880;BME280;25887;30.194;-97.880;2022-08-03T05:45:24;98352.75;;;32.78;39.02
38880;BME280;25887;30.194;-97.880;2022-08-03T05:47:50;98354.69;;;32.76;38.52
38880;BME280;25887;30.194;-97.880;2022-08-03T05:50:16;98357.63;;;32.72;38.96
38880;BME280;25887;30.194;-97.880;2022-08-03T05:52:42;98352.44;;;32.71;38.51
38880;BME280;25887;30.194;-97.880;2022-08-03T05:55:17;98357.09;;;32.69;38.68
38880;BME280;25887;30.194;-97.880;2022-08-03T05:57:44;98360.84;;;32.66;39.06
38880;BME280;25887;30.194;-97.880;2022-08-03T06:00:10;98361.00;;;32.65;38.81
38880;BME280;25887;30.194;-97.880;2022-08-03T06:02:36;98368.41;;;32.61;38.59
38880;BME280;25887;30.194;-97.880;2022-08-03T06:05:02;98365.88;;;32.60;38.58
38880;BME280;25887;30.194;-97.880;2022-08-03T06:07:28;98371.34;;;32.58;38.98
38880;BME280;25887;30.194;-97.880;2022-08-03T06:09:54;98366.31;;;32.55;38.87
38880;BME280;25887;30.194;-97.880;2022-08-03T06:12:20;98363.78;;;32.54;38.63
38880;BME280;25887;30.194;-97.880;2022-08-03T06:14:54;98364.06;;;32.51;38.97
38880;BME280;25887;30.194;-97.880;2022-08-03T06:17:19;98352.56;;;32.50;39.05
38880;BME280;25887;30.194;-97.880;2022-08-03T06:19:45;98355.66;;;32.46;38.68
38880;BME280;25887;30.194;-97.880;2022-08-03T06:22:11;98356.75;;;32.43;38.89
38880;BME280;25887;30.194;-97.880;2022-08-03T06:24:37;98355.38;;;32.39;39.22
38880;BME280;25887;30.194;-97.880;2022-08-03T06:27:02;98349.47;;;32.35;39.27
38880;BME280;25887;30.194;-97.880;2022-08-03T06:29:29;98355.09;;;32.32;38.86
38880;BME280;25887;30.194;-97.880;2022-08-03T06:31:55;98358.72;;;32.31;39.09
38880;BME280;25887;30.194;-97.880;2022-08-03T06:34:21;98349.16;;;32.29;39.03
38880;BME280;25887;30.194;-97.880;2022-08-03T06:36:46;98351.13;;;32.27;39.00
38880;BME280;25887;30.194;-97.880;2022-08-03T06:39:14;98350.56;;;32.23;39.09
38880;BME280;25887;30.194;-97.880;2022-08-03T06:42:01;98354.06;;;32.24;39.15
38880;BME280;25887;30.194;-97.880;2022-08-03T06:44:27;98350.69;;;32.22;39.10
38880;BME280;25887;30.194;-97.880;2022-08-03T06:46:52;98349.97;;;32.20;39.25
38880;BME280;25887;30.194;-97.880;2022-08-03T06:49:18;98348.31;;;32.19;39.07
38880;BME280;25887;30.194;-97.880;2022-08-03T06:51:44;98344.09;;;32.16;39.37
38880;BME280;25887;30.194;-97.880;2022-08-03T06:54:10;98343.53;;;32.12;39.31
38880;BME280;25887;30.194;-97.880;2022-08-03T06:56:36;98348.28;;;32.09;39.26
38880;BME280;25887;30.194;-97.880;2022-08-03T06:59:02;98342.38;;;32.05;39.37
38880;BME280;25887;30.194;-97.880;2022-08-03T07:01:28;98341.00;;;32.01;39.45
38880;BME280;25887;30.194;-97.880;2022-08-03T07:03:53;98339.56;;;31.97;39.48
38880;BME280;25887;30.194;-97.880;2022-08-03T07:06:20;98335.53;;;31.93;39.75
38880;BME280;25887;30.194;-97.880;2022-08-03T07:08:46;98325.88;;;31.92;39.72
38880;BME280;25887;30.194;-97.880;2022-08-03T07:11:11;98334.22;;;31.87;39.59
38880;BME280;25887;30.194;-97.880;2022-08-03T07:13:37;98339.69;;;31.86;39.58
38880;BME280;25887;30.194;-97.880;2022-08-03T07:16:05;98343.31;;;31.85;39.71
38880;BME280;25887;30.194;-97.880;2022-08-03T07:18:31;98348.88;;;31.82;39.78
38880;BME280;25887;30.194;-97.880;2022-08-03T07:20:57;98341.19;;;31.79;39.64
38880;BME280;25887;30.194;-97.880;2022-08-03T07:23:23;98343.16;;;31.77;39.79
38880;BME280;25887;30.194;-97.880;2022-08-03T07:25:49;98336.38;;;31.73;39.93
38880;BME280;25887;30.194;-97.880;2022-08-03T07:28:15;98340.16;;;31.70;40.06
38880;BME280;25887;30.194;-97.880;2022-08-03T07:30:41;98346.47;;;31.69;39.89
38880;BME280;25887;30.194;-97.880;2022-08-03T07:33:06;98346.59;;;31.68;39.91
38880;BME280;25887;30.194;-97.880;2022-08-03T07:35:32;98355.66;;;31.65;39.86
38880;BME280;25887;30.194;-97.880;2022-08-03T07:37:58;98340.84;;;31.63;40.06
38880;BME280;25887;30.194;-97.880;2022-08-03T07:40:24;98351.44;;;31.63;39.81
38880;BME280;25887;30.194;-97.880;2022-08-03T07:42:49;98336.63;;;31.60;40.22
38880;BME280;25887;30.194;-97.880;2022-08-03T07:45:15;98347.38;;;31.58;40.23
38880;BME280;25887;30.194;-97.880;2022-08-03T07:47:41;98344.00;;;31.56;40.17
38880;BME280;25887;30.194;-97.880;2022-08-03T07:50:10;98345.13;;;31.54;40.11
38880;BME280;25887;30.194;-97.880;2022-08-03T07:52:36;98346.22;;;31.51;40.46
38880;BME280;25887;30.194;-97.880;2022-08-03T07:55:22;98351.94;;;31.47;40.60
38880;BME280;25887;30.194;-97.880;2022-08-03T07:58:07;98339.03;;;31.42;40.75
38880;BME280;25887;30.194;-97.880;2022-08-03T08:00:34;98336.81;;;31.38;40.72
38880;BME280;25887;30.194;-97.880;2022-08-03T08:03:00;98344.88;;;31.36;40.79
38880;BME280;25887;30.194;-97.880;2022-08-03T08:05:32;98340.69;;;31.33;40.85
38880;BME280;25887;30.194;-97.880;2022-08-03T08:07:58;98338.31;;;31.30;41.01
38880;BME280;25887;30.194;-97.880;2022-08-03T08:10:24;98335.78;;;31.29;41.00
38880;BME280;25887;30.194;-97.880;2022-08-03T08:12:51;98332.41;;;31.27;40.90
38880;BME280;25887;30.194;-97.880;2022-08-03T08:15:17;98332.66;;;31.24;41.11
38880;BME280;25887;30.194;-97.880;2022-08-03T08:18:01;98338.13;;;31.22;41.19
38880;BME280;25887;30.194;-97.880;2022-08-03T08:20:28;98333.84;;;31.20;41.32
38880;BME280;25887;30.194;-97.880;2022-08-03T08:22:54;98326.16;;;31.17;41.52
38880;BME280;25887;30.194;-97.880;2022-08-03T08:25:21;98332.44;;;31.16;41.36
38880;BME280;25887;30.194;-97.880;2022-08-03T08:27:47;98325.47;;;31.15;41.45
38880;BME280;25887;30.194;-97.880;2022-08-03T08:30:14;98324.50;;;31.16;41.35
38880;BME280;25887;30.194;-97.880;2022-08-03T08:32:41;98316.53;;;31.16;41.49
38880;BME280;25887;30.194;-97.880;2022-08-03T08:35:07;98309.53;;;31.15;41.57
38880;BME280;25887;30.194;-97.880;2022-08-03T08:37:33;98315.81;;;31.14;41.75
38880;BME280;25887;30.194;-97.880;2022-08-03T08:39:59;98305.44;;;31.11;41.62
38880;BME280;25887;30.194;-97.880;2022-08-03T08:45:13;98309.34;;;31.06;42.01
38880;BME280;25887;30.194;-97.880;2022-08-03T08:47:40;98302.38;;;31.05;41.94
38880;BME280;25887;30.194;-97.880;2022-08-03T08:50:08;98302.63;;;31.02;42.14
38880;BME280;25887;30.194;-97.880;2022-08-03T08:52:35;98308.91;;;31.01;41.95
38880;BME280;25887;30.194;-97.880;2022-08-03T08:55:03;98307.22;;;31.00;42.07
38880;BME280;25887;30.194;-97.880;2022-08-03T08:57:51;98307.50;;;30.97;42.21
38880;BME280;25887;30.194;-97.880;2022-08-03T09:00:15;98311.94;;;30.97;42.25
38880;BME280;25887;30.194;-97.880;2022-08-03T09:02:41;98304.84;;;30.97;42.24
38880;BME280;25887;30.194;-97.880;2022-08-03T09:05:15;98304.84;;;30.97;42.17
38880;BME280;25887;30.194;-97.880;2022-08-03T09:07:41;98296.97;;;30.96;42.39
38880;BME280;25887;30.194;-97.880;2022-08-03T09:10:08;98296.16;;;30.95;42.33
38880;BME280;25887;30.194;-97.880;2022-08-03T09:12:42;98298.09;;;30.93;42.34
38880;BME280;25887;30.194;-97.880;2022-08-03T09:15:27;98306.31;;;30.90;42.50
38880;BME280;25887;30.194;-97.880;2022-08-03T09:17:56;98304.75;;;30.88;42.29
38880;BME280;25887;30.194;-97.880;2022-08-03T09:20:24;98315.50;;;30.86;42.48
38880;BME280;25887;30.194;-97.880;2022-08-03T09:22:51;98318.28;;;30.85;42.52
38880;BME280;25887;30.194;-97.880;2022-08-03T09:25:17;98324.69;;;30.82;42.81
38880;BME280;25887;30.194;-97.880;2022-08-03T09:27:44;98333.72;;;30.79;42.86
38880;BME280;25887;30.194;-97.880;2022-08-03T09:30:13;98332.19;;;30.77;42.74
38880;BME280;25887;30.194;-97.880;2022-08-03T09:32:40;98330.50;;;30.76;42.84
38880;BME280;25887;30.194;-97.880;2022-08-03T09:35:06;98328.00;;;30.74;42.86
38880;BME280;25887;30.194;-97.880;2022-08-03T09:37:32;98321.81;;;30.74;42.94
38880;BME280;25887;30.194;-97.880;2022-08-03T09:39:58;98321.13;;;30.72;42.94
38880;BME280;25887;30.194;-97.880;2022-08-03T09:42:24;98323.75;;;30.72;43.09
38880;BME280;25887;30.194;-97.880;2022-08-03T09:44:51;98318.72;;;30.69;43.34
38880;BME280;25887;30.194;-97.880;2022-08-03T09:47:33;98314.53;;;30.66;43.15
38880;BME280;25887;30.194;-97.880;2022-08-03T09:50:07;98320.88;;;30.64;43.26
38880;BME280;25887;30.194;-97.880;2022-08-03T09:52:34;98325.34;;;30.63;43.40
38880;BME280;25887;30.194;-97.880;2022-08-03T09:55:01;98316.69;;;30.61;43.66
38880;BME280;25887;30.194;-97.880;2022-08-03T09:57:32;98317.66;;;30.60;43.89
38880;BME280;25887;30.194;-97.880;2022-08-03T10:00:08;98317.06;;;30.57;44.08
38880;BME280;25887;30.194;-97.880;2022-08-03T10:02:38;98313.69;;;30.55;43.97
38880;BME280;25887;30.194;-97.880;2022-08-03T10:05:04;98311.03;;;30.55;44.01
38880;BME280;25887;30.194;-97.880;2022-08-03T10:07:40;98314.66;;;30.54;44.02
38880;BME280;25887;30.194;-97.880;2022-08-03T10:10:06;98313.13;;;30.51;44.51
38880;BME280;25887;30.194;-97.880;2022-08-03T10:15:18;98316.00;;;30.48;44.43
38880;BME280;25887;30.194;-97.880;2022-08-03T10:17:52;98305.53;;;30.46;44.64
38880;BME280;25887;30.194;-97.880;2022-08-03T10:20:18;98308.31;;;30.45;44.85
38880;BME280;25887;30.194;-97.880;2022-08-03T10:22:56;98304.00;;;30.44;44.50
38880;BME280;25887;30.194;-97.880;2022-08-03T10:25:22;98314.69;;;30.42;44.98
38880;BME280;25887;30.194;-97.880;2022-08-03T10:27:49;98305.06;;;30.41;44.99
38880;BME280;25887;30.194;-97.880;2022-08-03T10:30:16;98309.66;;;30.39;44.96
38880;BME280;25887;30.194;-97.880;2022-08-03T10:32:54;98314.97;;;30.39;44.91
38880;BME280;25887;30.194;-97.880;2022-08-03T10:35:21;98318.59;;;30.38;44.73
38880;BME280;25887;30.194;-97.880;2022-08-03T10:37:51;98324.84;;;30.37;44.92
38880;BME280;25887;30.194;-97.880;2022-08-03T10:40:17;98320.38;;;30.38;45.04
38880;BME280;25887;30.194;-97.880;2022-08-03T10:42:45;98321.38;;;30.37;44.85
38880;BME280;25887;30.194;-97.880;2022-08-03T10:45:19;98310.88;;;30.35;44.86
38880;BME280;25887;30.194;-97.880;2022-08-03T10:47:47;98325.81;;;30.36;45.19
38880;BME280;25887;30.194;-97.880;2022-08-03T10:50:14;98327.63;;;30.36;45.13
38880;BME280;25887;30.194;-97.880;2022-08-03T10:52:59;98324.16;;;30.35;45.60
38880;BME280;25887;30.194;-97.880;2022-08-03T11:01:01;98326.31;;;30.30;45.47
38880;BME280;25887;30.194;-97.880;2022-08-03T11:03:27;98322.69;;;30.31;45.65
38880;BME280;25887;30.194;-97.880;2022-08-03T11:05:52;98327.16;;;30.31;45.65
38880;BME280;25887;30.194;-97.880;2022-08-03T11:08:38;98321.72;;;30.32;45.37
38880;BME280;25887;30.194;-97.880;2022-08-03T11:16:23;98323.81;;;30.29;45.68
38880;BME280;25887;30.194;-97.880;2022-08-03T11:19:01;98322.97;;;30.28;45.84
38880;BME280;25887;30.194;-97.880;2022-08-03T11:22:09;98329.09;;;30.29;45.89
38880;BME280;25887;30.194;-97.880;2022-08-03T11:27:15;98328.38;;;30.27;46.09
38880;BME280;25887;30.194;-97.880;2022-08-03T11:30:21;98332.81;;;30.26;46.23
38880;BME280;25887;30.194;-97.880;2022-08-03T11:38:10;98329.47;;;30.24;46.15
38880;BME280;25887;30.194;-97.880;2022-08-03T11:40:40;98336.72;;;30.22;46.15
38880;BME280;25887;30.194;-97.880;2022-08-03T11:46:10;98343.94;;;30.20;46.50
38880;BME280;25887;30.194;-97.880;2022-08-03T11:48:42;98346.59;;;30.20;46.58
38880;BME280;25887;30.194;-97.880;2022-08-03T11:51:24;98343.94;;;30.20;46.47
38880;BME280;25887;30.194;-97.880;2022-08-03T11:54:00;98340.56;;;30.18;46.47
38880;BME280;25887;30.194;-97.880;2022-08-03T11:56:27;98343.34;;;30.16;46.47
38880;BME280;25887;30.194;-97.880;2022-08-03T11:58:54;98350.44;;;30.16;46.59
38880;BME280;25887;30.194;-97.880;2022-08-03T12:01:21;98346.97;;;30.15;46.64
38880;BME280;25887;30.194;-97.880;2022-08-03T12:03:47;98350.69;;;30.13;46.83
38880;BME280;25887;30.194;-97.880;2022-08-03T12:06:14;98351.53;;;30.13;46.82
38880;BME280;25887;30.194;-97.880;2022-08-03T12:08:41;98346.38;;;30.12;46.91
38880;BME280;25887;30.194;-97.880;2022-08-03T12:11:07;98344.66;;;30.11;46.65
38880;BME280;25887;30.194;-97.880;2022-08-03T12:13:38;98345.50;;;30.11;46.74
38880;BME280;25887;30.194;-97.880;2022-08-03T12:16:18;98348.28;;;30.10;47.10
38880;BME280;25887;30.194;-97.880;2022-08-03T12:18:46;98351.91;;;30.09;46.74
38880;BME280;25887;30.194;-97.880;2022-08-03T12:21:48;98356.34;;;30.08;47.21
38880;BME280;25887;30.194;-97.880;2022-08-03T12:24:14;98357.19;;;30.09;47.07
38880;BME280;25887;30.194;-97.880;2022-08-03T12:26:44;98353.59;;;30.10;47.04
38880;BME280;25887;30.194;-97.880;2022-08-03T12:29:17;98358.88;;;30.10;47.22
38880;BME280;25887;30.194;-97.880;2022-08-03T12:31:43;98356.22;;;30.10;47.35
38880;BME280;25887;30.194;-97.880;2022-08-03T12:34:09;98352.75;;;30.09;47.53
38880;BME280;25887;30.194;-97.880;2022-08-03T12:36:35;98358.88;;;30.10;47.40
38880;BME280;25887;30.194;-97.880;2022-08-03T12:39:03;98356.22;;;30.10;47.32
38880;BME280;25887;30.194;-97.880;2022-08-03T12:47:48;98359.84;;;30.09;47.80
38880;BME280;25887;30.194;-97.880;2022-08-03T12:50:22;98367.81;;;30.09;48.27
38880;BME280;25887;30.194;-97.880;2022-08-03T12:52:48;98370.31;;;30.10;47.95
38880;BME280;25887;30.194;-97.880;2022-08-03T12:55:18;98375.53;;;30.12;47.77
38880;BME280;25887;30.194;-97.880;2022-08-03T12:57:44;98372.00;;;30.11;48.12
38880;BME280;25887;30.194;-97.880;2022-08-03T13:00:11;98379.00;;;30.12;47.89
38880;BME280;25887;30.194;-97.880;2022-08-03T13:02:37;98381.53;;;30.14;47.98
38880;BME280;25887;30.194;-97.880;2022-08-03T13:05:08;98385.88;;;30.15;48.09
38880;BME280;25887;30.194;-97.880;2022-08-03T13:07:44;98397.31;;;30.15;48.73
38880;BME280;25887;30.194;-97.880;2022-08-03T13:10:10;98392.84;;;30.16;48.61
38880;BME280;25887;30.194;-97.880;2022-08-03T13:12:46;98384.19;;;30.14;49.05
38880;BME280;25887;30.194;-97.880;2022-08-03T13:15:12;98397.44;;;30.14;49.31
38880;BME280;25887;30.194;-97.880;2022-08-03T13:17:38;98397.44;;;30.14;48.99
38880;BME280;25887;30.194;-97.880;2022-08-03T13:20:04;98395.50;;;30.16;49.34
38880;BME280;25887;30.194;-97.880;2022-08-03T13:22:30;98390.19;;;30.16;49.48
38880;BME280;25887;30.194;-97.880;2022-08-03T13:24:59;98396.94;;;30.20;49.34
38880;BME280;25887;30.194;-97.880;2022-08-03T13:27:26;98401.16;;;30.22;49.30
38880;BME280;25887;30.194;-97.880;2022-08-03T13:29:52;98408.13;;;30.23;49.48
38880;BME280;25887;30.194;-97.880;2022-08-03T13:32:18;98404.50;;;30.24;49.49
38880;BME280;25887;30.194;-97.880;2022-08-03T13:34:44;98411.38;;;30.27;49.59
38880;BME280;25887;30.194;-97.880;2022-08-03T13:37:10;98414.63;;;30.31;49.28
38880;BME280;25887;30.194;-97.880;2022-08-03T13:39:39;98411.84;;;30.32;49.53
38880;BME280;25887;30.194;-97.880;2022-08-03T13:42:05;98408.00;;;30.36;49.19
38880;BME280;25887;30.194;-97.880;2022-08-03T13:44:31;98406.91;;;30.39;49.45
38880;BME280;25887;30.194;-97.880;2022-08-03T13:46:57;98412.06;;;30.40;49.69
38880;BME280;25887;30.194;-97.880;2022-08-03T13:49:26;98411.84;;;30.43;49.31
38880;BME280;25887;30.194;-97.880;2022-08-03T13:51:53;98416.03;;;30.46;49.56
38880;BME280;25887;30.194;-97.880;2022-08-03T13:54:18;98428.06;;;30.50;49.63
38880;BME280;25887;30.194;-97.880;2022-08-03T13:56:44;98432.31;;;30.52;49.97
38880;BME280;25887;30.194;-97.880;2022-08-03T13:59:22;98430.38;;;30.55;49.52
38880;BME280;25887;30.194;-97.880;2022-08-03T14:01:49;98435.41;;;30.58;49.53
38880;BME280;25887;30.194;-97.880;2022-08-03T14:04:16;98435.19;;;30.61;49.33